sensor_id;sensor_type;location;lat;lon;timestamp;temperature;humidity
11599;DHT22;5855;48.840;9.188;2023-08-20T00:00:56;23.20;99.90
11599;DHT22;5855;48.840;9.188;2023-08-20T00:03:23;23.20;99.90
11599;DHT22;5855;48.840;9.188;2023-08-20T00:05:51;23.20;99.90
11599;DHT22;5855;48.840;9.188;2023-08-20T00:08:19;23.20;99.90
11599;DHT22;5855;48.840;9.188;2023-08-20T00:10:47;23.20;99.90
11599;DHT22;5855;48.840;9.188;2023-08-20T00:13:14;23.20;99.90
11599;DHT22;5855;48.840;9.188;2023-08-20T00:15:41;23.20;99.90
11599;DHT22;5855;48.840;9.188;2023-08-20T00:18:08;23.20;99.90
11599;DHT22;5855;48.840;9.188;2023-08-20T00:20:36;23.20;99.90
11599;DHT22;5855;48.840;9.188;2023-08-20T00:23:04;23.20;99.90
11599;DHT22;5855;48.840;9.188;2023-08-20T00:25:32;23.20;99.90
11599;DHT22;5855;48.840;9.188;2023-08-20T00:28:00;23.20;99.90
11599;DHT22;5855;48.840;9.188;2023-08-20T00:30:27;23.20;99.90
11599;DHT22;5855;48.840;9.188;2023-08-20T00:32:53;23.20;99.90
11599;DHT22;5855;48.840;9.188;2023-08-20T00:35:19;23.20;99.90
11599;DHT22;5855;48.840;9.188;2023-08-20T00:37:46;23.20;99.90
11599;DHT22;5855;48.840;9.188;2023-08-20T00:40:13;23.20;99.90
11599;DHT22;5855;48.840;9.188;2023-08-20T00:42:40;23.10;99.90
11599;DHT22;5855;48.840;9.188;2023-08-20T00:45:09;23.20;99.90
11599;DHT22;5855;48.840;9.188;2023-08-20T00:47:36;23.20;99.90
11599;DHT22;5855;48.840;9.188;2023-08-20T00:50:04;23.10;99.90
11599;DHT22;5855;48.840;9.188;2023-08-20T00:52:32;23.10;99.90
11599;DHT22;5855;48.840;9.188;2023-08-20T00:54:59;23.10;99.90
11599;DHT22;5855;48.840;9.188;2023-08-20T00:57:26;23.20;99.90
11599;DHT22;5855;48.840;9.188;2023-08-20T00:59:55;23.10;99.90
11599;DHT22;5855;48.840;9.188;2023-08-20T01:02:23;23.10;99.90
11599;DHT22;5855;48.840;9.188;2023-08-20T01:04:50;23.10;99.90
11599;DHT22;5855;48.840;9.188;2023-08-20T01:07:23;23.10;99.90
11599;DHT22;5855;48.840;9.188;2023-08-20T01:09:59;23.10;99.90
11599;DHT22;5855;48.840;9.188;2023-08-20T01:12:29;23.00;99.90
11599;DHT22;5855;48.840;9.188;2023-08-20T01:14:55;23.10;99.90
11599;DHT22;5855;48.840;9.188;2023-08-20T01:17:24;23.10;99.90
11599;DHT22;5855;48.840;9.188;2023-08-20T01:19:50;23.00;99.90
11599;DHT22;5855;48.840;9.188;2023-08-20T01:22:40;22.90;99.90
11599;DHT22;5855;48.840;9.188;2023-08-20T01:25:19;22.80;99.90
11599;DHT22;5855;48.840;9.188;2023-08-20T01:27:56;22.80;99.90
11599;DHT22;5855;48.840;9.188;2023-08-20T01:30:26;22.80;99.90
11599;DHT22;5855;48.840;9.188;2023-08-20T01:32:54;22.70;99.90
11599;DHT22;5855;48.840;9.188;2023-08-20T01:35:24;22.70;99.90
11599;DHT22;5855;48.840;9.188;2023-08-20T01:37:51;22.70;99.90
11599;DHT22;5855;48.840;9.188;2023-08-20T01:40:19;22.70;99.90
11599;DHT22;5855;48.840;9.188;2023-08-20T01:42:45;22.70;99.90
11599;DHT22;5855;48.840;9.188;2023-08-20T01:45:12;22.60;99.90
11599;DHT22;5855;48.840;9.188;2023-08-20T01:47:40;22.60;99.90
11599;DHT22;5855;48.840;9.188;2023-08-20T01:50:09;22.60;99.90
11599;DHT22;5855;48.840;9.188;2023-08-20T01:52:36;22.60;99.90
11599;DHT22;5855;48.840;9.188;2023-08-20T01:55:04;22.60;99.90
11599;DHT22;5855;48.840;9.188;2023-08-20T01:57:31;22.60;99.90
11599;DHT22;5855;48.840;9.188;2023-08-20T01:59:58;22.50;99.90
11599;DHT22;5855;48.840;9.188;2023-08-20T02:02:25;22.50;99.90
11599;DHT22;5855;48.840;9.188;2023-08-20T02:04:53;22.50;99.90
11599;DHT22;5855;48.840;9.188;2023-08-20T02:07:20;22.50;99.90
11599;DHT22;5855;48.840;9.188;2023-08-20T02:09:46;22.50;99.90
11599;DHT22;5855;48.840;9.188;2023-08-20T02:12:14;22.40;99.90
11599;DHT22;5855;48.840;9.188;2023-08-20T02:14:40;22.40;99.90
11599;DHT22;5855;48.840;9.188;2023-08-20T02:17:07;22.40;99.90
11599;DHT22;5855;48.840;9.188;2023-08-20T02:19:34;22.30;99.90
11599;DHT22;5855;48.840;9.188;2023-08-20T02:22:03;22.30;99.90
11599;DHT22;5855;48.840;9.188;2023-08-20T02:24:30;22.20;99.90
11599;DHT22;5855;48.840;9.188;2023-08-20T02:26:56;22.20;99.90
11599;DHT22;5855;48.840;9.188;2023-08-20T02:29:23;22.10;99.90
11599;DHT22;5855;48.840;9.188;2023-08-20T02:31:50;22.20;99.90
11599;DHT22;5855;48.840;9.188;2023-08-20T02:34:17;22.10;99.90
11599;DHT22;5855;48.840;9.188;2023-08-20T02:36:44;22.10;99.90
11599;DHT22;5855;48.840;9.188;2023-08-20T02:39:13;22.10;99.90
11599;DHT22;5855;48.840;9.188;2023-08-20T02:41:42;22.00;99.90
11599;DHT22;5855;48.840;9.188;2023-08-20T02:44:09;22.00;99.90
11599;DHT22;5855;48.840;9.188;2023-08-20T02:46:36;22.00;99.90
11599;DHT22;5855;48.840;9.188;2023-08-20T02:49:03;22.00;99.90
11599;DHT22;5855;48.840;9.188;2023-08-20T02:51:30;22.00;99.90
11599;DHT22;5855;48.840;9.188;2023-08-20T02:53:57;22.00;99.90
11599;DHT22;5855;48.840;9.188;2023-08-20T02:56:25;21.90;99.90
11599;DHT22;5855;48.840;9.188;2023-08-20T02:58:52;21.90;99.90
11599;DHT22;5855;48.840;9.188;2023-08-20T03:01:19;21.80;99.90
11599;DHT22;5855;48.840;9.188;2023-08-20T03:03:46;21.80;99.90
11599;DHT22;5855;48.840;9.188;2023-08-20T03:06:13;21.80;99.90
11599;DHT22;5855;48.840;9.188;2023-08-20T03:08:40;21.70;99.90
11599;DHT22;5855;48.840;9.188;2023-08-20T03:11:07;21.60;99.90
11599;DHT22;5855;48.840;9.188;2023-08-20T03:13:35;21.60;99.90
11599;DHT22;5855;48.840;9.188;2023-08-20T03:16:02;21.60;99.90
11599;DHT22;5855;48.840;9.188;2023-08-20T03:18:29;21.60;99.90
11599;DHT22;5855;48.840;9.188;2023-08-20T03:20:56;21.60;99.90
11599;DHT22;5855;48.840;9.188;2023-08-20T03:23:23;21.50;99.90
11599;DHT22;5855;48.840;9.188;2023-08-20T03:25:50;21.60;99.90
11599;DHT22;5855;48.840;9.188;2023-08-20T03:28:18;21.60;99.90
11599;DHT22;5855;48.840;9.188;2023-08-20T03:30:46;21.60;99.90
11599;DHT22;5855;48.840;9.188;2023-08-20T03:33:13;21.60;99.90
11599;DHT22;5855;48.840;9.188;2023-08-20T03:35:40;21.60;99.90
11599;DHT22;5855;48.840;9.188;2023-08-20T03:38:07;21.60;99.90
11599;DHT22;5855;48.840;9.188;2023-08-20T03:40:34;21.50;99.90
11599;DHT22;5855;48.840;9.188;2023-08-20T03:43:00;21.40;99.90
11599;DHT22;5855;48.840;9.188;2023-08-20T03:45:28;21.40;99.90
11599;DHT22;5855;48.840;9.188;2023-08-20T03:47:56;21.30;99.90
11599;DHT22;5855;48.840;9.188;2023-08-20T03:50:23;21.30;99.90
11599;DHT22;5855;48.840;9.188;2023-08-20T03:52:50;21.20;99.90
11599;DHT22;5855;48.840;9.188;2023-08-20T03:55:17;21.30;99.90
11599;DHT22;5855;48.840;9.188;2023-08-20T03:57:44;21.20;99.90
11599;DHT22;5855;48.840;9.188;2023-08-20T04:00:12;21.20;99.90
11599;DHT22;5855;48.840;9.188;2023-08-20T04:02:39;21.20;99.90
11599;DHT22;5855;48.840;9.188;2023-08-20T04:05:07;21.30;99.90
11599;DHT22;5855;48.840;9.188;2023-08-20T04:07:35;21.30;99.90
11599;DHT22;5855;48.840;9.188;2023-08-20T04:10:02;21.30;99.90
11599;DHT22;5855;48.840;9.188;2023-08-20T04:12:29;21.30;99.90
11599;DHT22;5855;48.840;9.188;2023-08-20T04:14:56;21.30;99.90
11599;DHT22;5855;48.840;9.188;2023-08-20T04:17:23;21.30;99.90
11599;DHT22;5855;48.840;9.188;2023-08-20T04:19:49;21.30;99.90
11599;DHT22;5855;48.840;9.188;2023-08-20T04:22:18;21.30;99.90
11599;DHT22;5855;48.840;9.188;2023-08-20T04:24:44;21.30;99.90
11599;DHT22;5855;48.840;9.188;2023-08-20T04:27:11;21.30;99.90
11599;DHT22;5855;48.840;9.188;2023-08-20T04:29:38;21.30;99.90
11599;DHT22;5855;48.840;9.188;2023-08-20T04:32:05;21.30;99.90
11599;DHT22;5855;48.840;9.188;2023-08-20T04:34:32;21.20;99.90
11599;DHT22;5855;48.840;9.188;2023-08-20T04:36:59;21.30;99.90
11599;DHT22;5855;48.840;9.188;2023-08-20T04:39:27;21.20;99.90
11599;DHT22;5855;48.840;9.188;2023-08-20T04:41:54;21.20;99.90
11599;DHT22;5855;48.840;9.188;2023-08-20T04:44:22;21.30;99.90
11599;DHT22;5855;48.840;9.188;2023-08-20T04:46:50;21.30;99.90
11599;DHT22;5855;48.840;9.188;2023-08-20T04:49:16;21.30;99.90
11599;DHT22;5855;48.840;9.188;2023-08-20T04:51:43;21.30;99.90
11599;DHT22;5855;48.840;9.188;2023-08-20T04:54:10;21.40;99.90
11599;DHT22;5855;48.840;9.188;2023-08-20T04:56:38;21.40;99.90
11599;DHT22;5855;48.840;9.188;2023-08-20T04:59:05;21.30;99.90
11599;DHT22;5855;48.840;9.188;2023-08-20T05:01:32;21.30;99.90
11599;DHT22;5855;48.840;9.188;2023-08-20T05:03:58;21.30;99.90
11599;DHT22;5855;48.840;9.188;2023-08-20T05:06:25;21.30;99.90
11599;DHT22;5855;48.840;9.188;2023-08-20T05:08:52;21.30;99.90
11599;DHT22;5855;48.840;9.188;2023-08-20T05:11:19;21.20;99.90
11599;DHT22;5855;48.840;9.188;2023-08-20T05:13:47;21.20;99.90
11599;DHT22;5855;48.840;9.188;2023-08-20T05:16:14;21.30;99.90
11599;DHT22;5855;48.840;9.188;2023-08-20T05:18:41;21.30;99.90
11599;DHT22;5855;48.840;9.188;2023-08-20T05:21:08;21.30;99.90
11599;DHT22;5855;48.840;9.188;2023-08-20T05:23:38;21.30;99.90
11599;DHT22;5855;48.840;9.188;2023-08-20T05:26:05;21.30;99.90
11599;DHT22;5855;48.840;9.188;2023-08-20T05:28:32;21.40;99.90
11599;DHT22;5855;48.840;9.188;2023-08-20T05:31:01;21.40;99.90
11599;DHT22;5855;48.840;9.188;2023-08-20T05:33:27;21.40;99.90
11599;DHT22;5855;48.840;9.188;2023-08-20T05:35:55;21.50;99.90
11599;DHT22;5855;48.840;9.188;2023-08-20T05:38:22;21.50;99.90
11599;DHT22;5855;48.840;9.188;2023-08-20T05:40:49;21.60;99.90
11599;DHT22;5855;48.840;9.188;2023-08-20T05:43:15;21.60;99.90
11599;DHT22;5855;48.840;9.188;2023-08-20T05:45:42;21.80;99.90
11599;DHT22;5855;48.840;9.188;2023-08-20T05:48:10;21.90;99.90
11599;DHT22;5855;48.840;9.188;2023-08-20T05:50:37;22.00;99.90
11599;DHT22;5855;48.840;9.188;2023-08-20T05:53:04;22.00;99.90
11599;DHT22;5855;48.840;9.188;2023-08-20T05:55:31;22.10;99.90
11599;DHT22;5855;48.840;9.188;2023-08-20T05:57:57;22.20;99.90
11599;DHT22;5855;48.840;9.188;2023-08-20T06:00:24;22.20;99.90
11599;DHT22;5855;48.840;9.188;2023-08-20T06:02:51;22.40;99.90
11599;DHT22;5855;48.840;9.188;2023-08-20T06:05:19;22.50;99.90
11599;DHT22;5855;48.840;9.188;2023-08-20T06:07:46;22.60;99.90
11599;DHT22;5855;48.840;9.188;2023-08-20T06:10:13;22.70;99.90
11599;DHT22;5855;48.840;9.188;2023-08-20T06:12:40;22.80;99.90
11599;DHT22;5855;48.840;9.188;2023-08-20T06:15:08;23.00;99.90
11599;DHT22;5855;48.840;9.188;2023-08-20T06:17:35;23.10;99.90
11599;DHT22;5855;48.840;9.188;2023-08-20T06:20:03;23.20;99.90
11599;DHT22;5855;48.840;9.188;2023-08-20T06:22:34;23.50;99.90
11599;DHT22;5855;48.840;9.188;2023-08-20T06:25:01;23.60;99.90
11599;DHT22;5855;48.840;9.188;2023-08-20T06:27:28;23.70;99.90
11599;DHT22;5855;48.840;9.188;2023-08-20T06:29:55;23.80;99.90
11599;DHT22;5855;48.840;9.188;2023-08-20T06:32:23;23.90;99.90
11599;DHT22;5855;48.840;9.188;2023-08-20T06:34:50;24.00;99.90
11599;DHT22;5855;48.840;9.188;2023-08-20T06:37:16;24.20;99.90
11599;DHT22;5855;48.840;9.188;2023-08-20T06:39:45;24.20;99.90
11599;DHT22;5855;48.840;9.188;2023-08-20T06:42:11;24.30;99.90
11599;DHT22;5855;48.840;9.188;2023-08-20T06:44:40;24.40;99.90
11599;DHT22;5855;48.840;9.188;2023-08-20T06:47:06;24.50;99.90
11599;DHT22;5855;48.840;9.188;2023-08-20T06:49:33;24.60;99.90
11599;DHT22;5855;48.840;9.188;2023-08-20T06:52:00;24.70;99.90
11599;DHT22;5855;48.840;9.188;2023-08-20T06:54:27;24.80;99.90
11599;DHT22;5855;48.840;9.188;2023-08-20T06:56:55;25.10;99.90
11599;DHT22;5855;48.840;9.188;2023-08-20T06:59:22;25.20;99.90
11599;DHT22;5855;48.840;9.188;2023-08-20T07:01:49;25.30;99.90
11599;DHT22;5855;48.840;9.188;2023-08-20T07:04:16;25.40;99.90
11599;DHT22;5855;48.840;9.188;2023-08-20T07:06:43;25.50;99.90
11599;DHT22;5855;48.840;9.188;2023-08-20T07:09:09;25.50;99.90
11599;DHT22;5855;48.840;9.188;2023-08-20T07:11:36;25.60;99.90
11599;DHT22;5855;48.840;9.188;2023-08-20T07:14:04;25.70;99.90
11599;DHT22;5855;48.840;9.188;2023-08-20T07:16:31;25.80;99.90
11599;DHT22;5855;48.840;9.188;2023-08-20T07:18:58;25.90;99.90
11599;DHT22;5855;48.840;9.188;2023-08-20T07:21:25;26.10;99.90
11599;DHT22;5855;48.840;9.188;2023-08-20T07:23:52;26.10;99.90
11599;DHT22;5855;48.840;9.188;2023-08-20T07:26:19;26.30;99.90
11599;DHT22;5855;48.840;9.188;2023-08-20T07:28:46;26.50;99.90
11599;DHT22;5855;48.840;9.188;2023-08-20T07:31:27;26.50;99.90
11599;DHT22;5855;48.840;9.188;2023-08-20T07:33:55;26.60;99.90
11599;DHT22;5855;48.840;9.188;2023-08-20T07:36:23;26.80;99.90
11599;DHT22;5855;48.840;9.188;2023-08-20T07:38:51;26.90;99.90
11599;DHT22;5855;48.840;9.188;2023-08-20T07:41:18;26.90;99.90
11599;DHT22;5855;48.840;9.188;2023-08-20T07:43:47;27.10;99.90
11599;DHT22;5855;48.840;9.188;2023-08-20T07:46:14;27.30;99.90
11599;DHT22;5855;48.840;9.188;2023-08-20T07:48:42;27.40;99.90
11599;DHT22;5855;48.840;9.188;2023-08-20T07:51:09;27.60;99.90
11599;DHT22;5855;48.840;9.188;2023-08-20T07:53:36;27.70;99.90
11599;DHT22;5855;48.840;9.188;2023-08-20T07:56:03;27.60;99.90
11599;DHT22;5855;48.840;9.188;2023-08-20T07:58:30;27.60;99.90
11599;DHT22;5855;48.840;9.188;2023-08-20T08:00:57;27.70;99.90
11599;DHT22;5855;48.840;9.188;2023-08-20T08:03:25;27.80;99.90
11599;DHT22;5855;48.840;9.188;2023-08-20T08:05:54;27.80;99.90
11599;DHT22;5855;48.840;9.188;2023-08-20T08:08:21;27.80;99.90
11599;DHT22;5855;48.840;9.188;2023-08-20T08:10:48;28.00;99.90
11599;DHT22;5855;48.840;9.188;2023-08-20T08:13:17;28.10;99.90
11599;DHT22;5855;48.840;9.188;2023-08-20T08:15:44;28.00;99.90
11599;DHT22;5855;48.840;9.188;2023-08-20T08:18:11;28.10;99.90
11599;DHT22;5855;48.840;9.188;2023-08-20T08:20:39;28.20;99.90
11599;DHT22;5855;48.840;9.188;2023-08-20T08:23:06;28.40;99.90
11599;DHT22;5855;48.840;9.188;2023-08-20T08:25:33;28.40;99.90
11599;DHT22;5855;48.840;9.188;2023-08-20T08:28:00;28.50;99.90
11599;DHT22;5855;48.840;9.188;2023-08-20T08:30:27;28.80;99.90
11599;DHT22;5855;48.840;9.188;2023-08-20T08:32:55;28.90;99.90
11599;DHT22;5855;48.840;9.188;2023-08-20T08:35:21;29.00;99.90
11599;DHT22;5855;48.840;9.188;2023-08-20T08:37:48;29.20;99.90
11599;DHT22;5855;48.840;9.188;2023-08-20T08:40:16;29.30;99.90
11599;DHT22;5855;48.840;9.188;2023-08-20T08:42:47;29.30;99.90
11599;DHT22;5855;48.840;9.188;2023-08-20T08:45:16;29.40;99.90
11599;DHT22;5855;48.840;9.188;2023-08-20T08:47:43;29.60;99.90
11599;DHT22;5855;48.840;9.188;2023-08-20T08:50:10;29.60;99.90
11599;DHT22;5855;48.840;9.188;2023-08-20T08:52:39;29.70;99.90
11599;DHT22;5855;48.840;9.188;2023-08-20T08:55:07;29.90;99.90
11599;DHT22;5855;48.840;9.188;2023-08-20T08:57:37;29.80;99.90
11599;DHT22;5855;48.840;9.188;2023-08-20T09:00:06;29.90;99.90
11599;DHT22;5855;48.840;9.188;2023-08-20T09:02:33;30.10;99.90
11599;DHT22;5855;48.840;9.188;2023-08-20T09:05:00;30.50;99.90
11599;DHT22;5855;48.840;9.188;2023-08-20T09:07:27;30.60;99.90
11599;DHT22;5855;48.840;9.188;2023-08-20T09:09:58;30.80;99.90
11599;DHT22;5855;48.840;9.188;2023-08-20T09:12:26;30.80;99.90
11599;DHT22;5855;48.840;9.188;2023-08-20T09:14:55;31.00;99.90
11599;DHT22;5855;48.840;9.188;2023-08-20T09:17:26;31.10;99.90
11599;DHT22;5855;48.840;9.188;2023-08-20T09:19:54;31.50;99.90
11599;DHT22;5855;48.840;9.188;2023-08-20T09:22:23;31.60;99.90
11599;DHT22;5855;48.840;9.188;2023-08-20T09:24:53;31.60;99.90
11599;DHT22;5855;48.840;9.188;2023-08-20T09:27:21;31.50;99.90
11599;DHT22;5855;48.840;9.188;2023-08-20T09:29:49;31.60;99.90
11599;DHT22;5855;48.840;9.188;2023-08-20T09:32:19;31.80;99.90
11599;DHT22;5855;48.840;9.188;2023-08-20T09:34:48;32.10;99.90
11599;DHT22;5855;48.840;9.188;2023-08-20T09:37:16;32.30;99.90
11599;DHT22;5855;48.840;9.188;2023-08-20T09:39:43;32.50;99.90
11599;DHT22;5855;48.840;9.188;2023-08-20T09:42:10;32.60;99.90
11599;DHT22;5855;48.840;9.188;2023-08-20T09:44:39;32.80;99.90
11599;DHT22;5855;48.840;9.188;2023-08-20T09:47:07;32.90;99.90
11599;DHT22;5855;48.840;9.188;2023-08-20T09:49:38;32.90;99.90
11599;DHT22;5855;48.840;9.188;2023-08-20T09:52:07;33.00;99.90
11599;DHT22;5855;48.840;9.188;2023-08-20T09:54:49;33.10;99.90
11599;DHT22;5855;48.840;9.188;2023-08-20T09:57:23;33.40;99.90
11599;DHT22;5855;48.840;9.188;2023-08-20T09:59:52;33.60;99.90
11599;DHT22;5855;48.840;9.188;2023-08-20T10:02:19;33.90;99.90
11599;DHT22;5855;48.840;9.188;2023-08-20T10:04:49;34.00;99.90
11599;DHT22;5855;48.840;9.188;2023-08-20T10:07:17;34.30;99.90
11599;DHT22;5855;48.840;9.188;2023-08-20T10:09:44;34.50;99.90
11599;DHT22;5855;48.840;9.188;2023-08-20T10:12:12;34.70;99.90
11599;DHT22;5855;48.840;9.188;2023-08-20T10:14:40;34.80;99.90
11599;DHT22;5855;48.840;9.188;2023-08-20T10:17:08;35.00;99.90
11599;DHT22;5855;48.840;9.188;2023-08-20T10:19:36;35.10;99.90
11599;DHT22;5855;48.840;9.188;2023-08-20T10:22:05;35.00;99.40
11599;DHT22;5855;48.840;9.188;2023-08-20T10:24:47;35.10;99.90
11599;DHT22;5855;48.840;9.188;2023-08-20T10:27:24;35.20;99.90
11599;DHT22;5855;48.840;9.188;2023-08-20T10:29:53;35.30;99.80
11599;DHT22;5855;48.840;9.188;2023-08-20T10:32:20;35.80;99.60
11599;DHT22;5855;48.840;9.188;2023-08-20T10:34:50;36.00;98.70
11599;DHT22;5855;48.840;9.188;2023-08-20T10:37:26;36.20;98.00
11599;DHT22;5855;48.840;9.188;2023-08-20T10:39:54;36.20;97.20
11599;DHT22;5855;48.840;9.188;2023-08-20T10:42:25;36.30;96.70
11599;DHT22;5855;48.840;9.188;2023-08-20T10:45:00;36.60;96.40
11599;DHT22;5855;48.840;9.188;2023-08-20T10:47:44;37.00;95.10
11599;DHT22;5855;48.840;9.188;2023-08-20T10:50:15;36.90;94.90
11599;DHT22;5855;48.840;9.188;2023-08-20T10:52:48;37.10;93.90
11599;DHT22;5855;48.840;9.188;2023-08-20T10:55:15;37.40;91.70
11599;DHT22;5855;48.840;9.188;2023-08-20T10:57:42;37.80;91.40
11599;DHT22;5855;48.840;9.188;2023-08-20T11:00:15;38.10;91.00
11599;DHT22;5855;48.840;9.188;2023-08-20T11:02:42;38.20;90.40
11599;DHT22;5855;48.840;9.188;2023-08-20T11:05:16;38.50;87.10
11599;DHT22;5855;48.840;9.188;2023-08-20T11:07:47;38.80;87.00
11599;DHT22;5855;48.840;9.188;2023-08-20T11:10:15;39.10;87.10
11599;DHT22;5855;48.840;9.188;2023-08-20T11:12:43;39.40;85.20
11599;DHT22;5855;48.840;9.188;2023-08-20T11:15:10;39.30;83.60
11599;DHT22;5855;48.840;9.188;2023-08-20T11:17:41;39.40;80.50
11599;DHT22;5855;48.840;9.188;2023-08-20T11:20:08;39.10;80.60
11599;DHT22;5855;48.840;9.188;2023-08-20T11:22:36;39.50;80.10
11599;DHT22;5855;48.840;9.188;2023-08-20T11:25:06;40.10;78.10
11599;DHT22;5855;48.840;9.188;2023-08-20T11:27:36;40.50;75.70
11599;DHT22;5855;48.840;9.188;2023-08-20T11:30:07;40.90;74.10
11599;DHT22;5855;48.840;9.188;2023-08-20T11:32:35;41.30;69.20
11599;DHT22;5855;48.840;9.188;2023-08-20T11:35:02;41.60;68.10
11599;DHT22;5855;48.840;9.188;2023-08-20T11:37:29;41.70;67.50
11599;DHT22;5855;48.840;9.188;2023-08-20T11:39:56;42.20;64.50
11599;DHT22;5855;48.840;9.188;2023-08-20T11:42:24;42.50;62.90
11599;DHT22;5855;48.840;9.188;2023-08-20T11:44:55;42.90;59.50
11599;DHT22;5855;48.840;9.188;2023-08-20T11:47:22;42.70;57.80
11599;DHT22;5855;48.840;9.188;2023-08-20T11:50:02;43.40;57.20
11599;DHT22;5855;48.840;9.188;2023-08-20T11:52:31;44.10;53.40
11599;DHT22;5855;48.840;9.188;2023-08-20T11:54:57;44.00;50.40
11599;DHT22;5855;48.840;9.188;2023-08-20T11:57:26;44.70;50.90
11599;DHT22;5855;48.840;9.188;2023-08-20T11:59:52;45.10;49.40
11599;DHT22;5855;48.840;9.188;2023-08-20T12:02:25;45.40;46.60
11599;DHT22;5855;48.840;9.188;2023-08-20T12:04:55;45.70;44.40
11599;DHT22;5855;48.840;9.188;2023-08-20T12:07:25;46.60;41.50
11599;DHT22;5855;48.840;9.188;2023-08-20T12:09:52;46.70;39.70
11599;DHT22;5855;48.840;9.188;2023-08-20T12:12:19;47.30;39.60
11599;DHT22;5855;48.840;9.188;2023-08-20T12:14:48;47.60;37.90
11599;DHT22;5855;48.840;9.188;2023-08-20T12:17:16;45.80;37.10
11599;DHT22;5855;48.840;9.188;2023-08-20T12:19:43;45.20;39.40
11599;DHT22;5855;48.840;9.188;2023-08-20T12:22:10;45.60;39.20
11599;DHT22;5855;48.840;9.188;2023-08-20T12:24:37;46.10;38.90
11599;DHT22;5855;48.840;9.188;2023-08-20T12:27:04;47.40;36.30
11599;DHT22;5855;48.840;9.188;2023-08-20T12:29:31;47.90;35.00
11599;DHT22;5855;48.840;9.188;2023-08-20T12:31:59;47.00;34.10
11599;DHT22;5855;48.840;9.188;2023-08-20T12:34:26;45.60;36.60
11599;DHT22;5855;48.840;9.188;2023-08-20T12:36:54;45.30;37.00
11599;DHT22;5855;48.840;9.188;2023-08-20T12:39:21;46.20;35.80
11599;DHT22;5855;48.840;9.188;2023-08-20T12:41:48;47.50;34.30
11599;DHT22;5855;48.840;9.188;2023-08-20T12:44:15;47.70;32.60
11599;DHT22;5855;48.840;9.188;2023-08-20T12:46:42;47.60;32.50
11599;DHT22;5855;48.840;9.188;2023-08-20T12:49:10;47.20;31.70
11599;DHT22;5855;48.840;9.188;2023-08-20T12:51:37;46.90;32.20
11599;DHT22;5855;48.840;9.188;2023-08-20T12:54:04;47.50;31.70
11599;DHT22;5855;48.840;9.188;2023-08-20T12:56:31;47.40;30.70
11599;DHT22;5855;48.840;9.188;2023-08-20T12:58:57;44.70;32.70
11599;DHT22;5855;48.840;9.188;2023-08-20T13:01:24;46.10;33.70
11599;DHT22;5855;48.840;9.188;2023-08-20T13:03:52;46.50;32.30
11599;DHT22;5855;48.840;9.188;2023-08-20T13:06:21;47.90;30.50
11599;DHT22;5855;48.840;9.188;2023-08-20T13:08:48;48.30;29.60
11599;DHT22;5855;48.840;9.188;2023-08-20T13:11:17;48.70;29.30
11599;DHT22;5855;48.840;9.188;2023-08-20T13:13:46;49.40;28.90
11599;DHT22;5855;48.840;9.188;2023-08-20T13:16:14;50.10;28.90
11599;DHT22;5855;48.840;9.188;2023-08-20T13:18:41;50.40;28.00
11599;DHT22;5855;48.840;9.188;2023-08-20T13:21:08;50.60;26.70
11599;DHT22;5855;48.840;9.188;2023-08-20T13:23:36;48.50;28.00
11599;DHT22;5855;48.840;9.188;2023-08-20T13:26:03;49.10;28.10
11599;DHT22;5855;48.840;9.188;2023-08-20T13:28:30;49.60;27.60
11599;DHT22;5855;48.840;9.188;2023-08-20T13:30:56;50.10;27.50
11599;DHT22;5855;48.840;9.188;2023-08-20T13:33:23;50.80;27.00
11599;DHT22;5855;48.840;9.188;2023-08-20T13:35:50;49.70;27.20
11599;DHT22;5855;48.840;9.188;2023-08-20T13:38:17;50.60;27.00
11599;DHT22;5855;48.840;9.188;2023-08-20T13:40:47;51.20;26.20
11599;DHT22;5855;48.840;9.188;2023-08-20T13:43:14;51.60;25.80
11599;DHT22;5855;48.840;9.188;2023-08-20T13:45:41;51.80;25.50
11599;DHT22;5855;48.840;9.188;2023-08-20T13:48:07;51.70;25.10
11599;DHT22;5855;48.840;9.188;2023-08-20T13:50:34;52.00;24.50
11599;DHT22;5855;48.840;9.188;2023-08-20T13:53:01;52.40;24.20
11599;DHT22;5855;48.840;9.188;2023-08-20T13:55:28;52.40;24.00
11599;DHT22;5855;48.840;9.188;2023-08-20T13:57:58;52.40;23.30
11599;DHT22;5855;48.840;9.188;2023-08-20T14:00:24;52.50;23.30
11599;DHT22;5855;48.840;9.188;2023-08-20T14:02:52;52.50;23.00
11599;DHT22;5855;48.840;9.188;2023-08-20T14:05:18;52.50;22.90
11599;DHT22;5855;48.840;9.188;2023-08-20T14:07:45;51.30;23.20
11599;DHT22;5855;48.840;9.188;2023-08-20T14:10:12;51.30;23.20
11599;DHT22;5855;48.840;9.188;2023-08-20T14:12:39;50.70;23.20
11599;DHT22;5855;48.840;9.188;2023-08-20T14:15:08;50.10;23.70
11599;DHT22;5855;48.840;9.188;2023-08-20T14:17:35;50.10;24.40
11599;DHT22;5855;48.840;9.188;2023-08-20T14:20:02;49.70;24.00
11599;DHT22;5855;48.840;9.188;2023-08-20T14:22:30;49.50;24.30
11599;DHT22;5855;48.840;9.188;2023-08-20T14:24:57;49.80;24.20
11599;DHT22;5855;48.840;9.188;2023-08-20T14:27:24;50.10;24.40
11599;DHT22;5855;48.840;9.188;2023-08-20T14:29:51;50.10;23.80
11599;DHT22;5855;48.840;9.188;2023-08-20T14:32:19;49.30;23.60
11599;DHT22;5855;48.840;9.188;2023-08-20T14:34:46;49.10;24.00
11599;DHT22;5855;48.840;9.188;2023-08-20T14:37:13;48.50;24.50
11599;DHT22;5855;48.840;9.188;2023-08-20T14:39:40;47.70;25.30
11599;DHT22;5855;48.840;9.188;2023-08-20T14:42:07;48.30;25.30
11599;DHT22;5855;48.840;9.188;2023-08-20T14:44:34;48.30;24.60
11599;DHT22;5855;48.840;9.188;2023-08-20T14:47:00;48.50;24.20
11599;DHT22;5855;48.840;9.188;2023-08-20T14:49:31;48.10;23.90
11599;DHT22;5855;48.840;9.188;2023-08-20T14:51:58;48.20;23.90
11599;DHT22;5855;48.840;9.188;2023-08-20T14:54:25;48.20;24.10
11599;DHT22;5855;48.840;9.188;2023-08-20T14:56:52;48.50;24.10
11599;DHT22;5855;48.840;9.188;2023-08-20T14:59:18;48.90;23.80
11599;DHT22;5855;48.840;9.188;2023-08-20T15:01:46;49.30;23.50
11599;DHT22;5855;48.840;9.188;2023-08-20T15:04:13;49.20;23.30
11599;DHT22;5855;48.840;9.188;2023-08-20T15:06:41;48.80;23.20
11599;DHT22;5855;48.840;9.188;2023-08-20T15:09:08;47.80;24.00
11599;DHT22;5855;48.840;9.188;2023-08-20T15:11:40;46.20;24.40
11599;DHT22;5855;48.840;9.188;2023-08-20T15:14:07;45.10;25.80
11599;DHT22;5855;48.840;9.188;2023-08-20T15:16:34;43.90;26.50
11599;DHT22;5855;48.840;9.188;2023-08-20T15:19:01;43.50;27.60
11599;DHT22;5855;48.840;9.188;2023-08-20T15:21:28;43.80;28.00
11599;DHT22;5855;48.840;9.188;2023-08-20T15:23:56;44.40;27.90
11599;DHT22;5855;48.840;9.188;2023-08-20T15:26:24;44.60;27.80
11599;DHT22;5855;48.840;9.188;2023-08-20T15:28:51;45.30;27.10
11599;DHT22;5855;48.840;9.188;2023-08-20T15:31:18;45.80;26.30
11599;DHT22;5855;48.840;9.188;2023-08-20T15:33:45;45.70;26.00
11599;DHT22;5855;48.840;9.188;2023-08-20T15:36:11;45.10;26.30
11599;DHT22;5855;48.840;9.188;2023-08-20T15:38:38;44.20;26.80
11599;DHT22;5855;48.840;9.188;2023-08-20T15:41:06;43.40;27.70
11599;DHT22;5855;48.840;9.188;2023-08-20T15:43:33;42.90;28.50
11599;DHT22;5855;48.840;9.188;2023-08-20T15:46:00;42.50;28.90
11599;DHT22;5855;48.840;9.188;2023-08-20T15:48:27;41.90;29.40